AFR566 KIAD-KRDU
Flight info
| Callsign | AFR566 |
|---|---|
| Flight time | N/A |
| Altitude | 35000 |
| Route | KIAD/19L N0443F300 JDUBB4 MELTN ALDAN4 KRDU/23R |
| Aircraft | A346/H-SDE3E/C |
Departure
| Time | 2026-05-06 23:51 |
|---|---|
| Airport | Washington Dulles International Airport (KIAD) |
Arrival
| Time | N/A |
|---|---|
| Airport | Raleigh-Durham International Airport (KRDU) |
| Time | Latitude | Longitude | Altitude | Speed | Heading |
|---|---|---|---|---|---|
| 2026-05-06 23:51 | 38.77391 | -77.57264 | 6997 ft | 277 kts | 208° |
| 2026-05-06 23:51 | 38.75696 | -77.58405 | 7005 ft | 276 kts | 208° |
| 2026-05-06 23:52 | 38.73974 | -77.59551 | 7009 ft | 276 kts | 207° |
| 2026-05-06 23:52 | 38.72267 | -77.60679 | 7011 ft | 276 kts | 207° |
| 2026-05-06 23:52 | 38.70548 | -77.61809 | 7012 ft | 276 kts | 207° |
| 2026-05-06 23:52 | 38.68825 | -77.62940 | 7169 ft | 284 kts | 207° |
| 2026-05-06 23:53 | 38.67052 | -77.64101 | 7927 ft | 284 kts | 207° |
| 2026-05-06 23:53 | 38.65314 | -77.65237 | 8704 ft | 283 kts | 207° |
| 2026-05-06 23:53 | 38.63546 | -77.66404 | 9366 ft | 286 kts | 207° |
| 2026-05-06 23:53 | 38.61800 | -77.67557 | 9993 ft | 289 kts | 207° |
| 2026-05-06 23:54 | 38.60000 | -77.68740 | 10629 ft | 291 kts | 207° |
| 2026-05-06 23:54 | 38.58203 | -77.69917 | 11246 ft | 294 kts | 207° |
| 2026-05-06 23:54 | 38.56390 | -77.71102 | 11758 ft | 297 kts | 207° |
| 2026-05-06 23:54 | 38.54547 | -77.72304 | 11991 ft | 298 kts | 206° |
| 2026-05-06 23:55 | 38.52685 | -77.73515 | 12004 ft | 298 kts | 206° |
| 2026-05-06 23:55 | 38.50823 | -77.74727 | 12177 ft | 308 kts | 206° |
| 2026-05-06 23:55 | 38.48908 | -77.75972 | 12742 ft | 312 kts | 206° |
| 2026-05-06 23:55 | 38.46976 | -77.77227 | 13371 ft | 313 kts | 206° |
| 2026-05-06 23:56 | 38.45039 | -77.78484 | 13997 ft | 315 kts | 206° |
| 2026-05-06 23:56 | 38.43077 | -77.79757 | 14628 ft | 316 kts | 206° |
| 2026-05-06 23:56 | 38.41119 | -77.81026 | 15258 ft | 316 kts | 206° |
| 2026-05-06 23:56 | 38.39202 | -77.82268 | 16127 ft | 306 kts | 206° |
| 2026-05-06 23:57 | 38.37323 | -77.83484 | 16649 ft | 309 kts | 206° |
| 2026-05-06 23:57 | 38.35404 | -77.84726 | 17141 ft | 312 kts | 206° |
| 2026-05-06 23:57 | 38.33452 | -77.85988 | 17639 ft | 315 kts | 206° |
| 2026-05-06 23:57 | 38.31514 | -77.87240 | 18123 ft | 317 kts | 206° |
| 2026-05-06 23:58 | 38.29525 | -77.88525 | 18609 ft | 320 kts | 206° |
| 2026-05-06 23:58 | 38.27535 | -77.89809 | 19082 ft | 322 kts | 206° |
| 2026-05-06 23:58 | 38.25503 | -77.91119 | 19553 ft | 325 kts | 206° |
| 2026-05-06 23:58 | 38.23506 | -77.92406 | 20004 ft | 327 kts | 206° |
| 2026-05-06 23:59 | 38.21456 | -77.93728 | 20248 ft | 334 kts | 206° |
| 2026-05-06 23:59 | 38.19334 | -77.95094 | 19818 ft | 351 kts | 206° |
| 2026-05-06 23:59 | 38.17122 | -77.96516 | 19060 ft | 360 kts | 206° |
| 2026-05-06 23:59 | 38.14879 | -77.97958 | 18424 ft | 365 kts | 206° |
| 2026-05-07 00:00 | 38.12630 | -77.99402 | 18087 ft | 360 kts | 206° |
| 2026-05-07 00:00 | 38.10400 | -78.00833 | 18035 ft | 365 kts | 206° |
| 2026-05-07 00:00 | 38.08072 | -78.02327 | 18033 ft | 384 kts | 206° |
| 2026-05-07 00:00 | 38.05633 | -78.03890 | 18030 ft | 401 kts | 206° |
| 2026-05-07 00:01 | 38.03134 | -78.05491 | 18023 ft | 406 kts | 206° |
| 2026-05-07 00:01 | 38.00628 | -78.07094 | 18021 ft | 406 kts | 206° |
| 2026-05-07 00:01 | 37.98082 | -78.08723 | 18019 ft | 407 kts | 206° |
| 2026-05-07 00:01 | 37.95557 | -78.10335 | 18019 ft | 407 kts | 206° |
| 2026-05-07 00:02 | 37.93057 | -78.11932 | 18019 ft | 407 kts | 206° |
| 2026-05-07 00:02 | 37.90514 | -78.13554 | 18019 ft | 407 kts | 206° |
| 2026-05-07 00:02 | 37.88012 | -78.15146 | 18019 ft | 407 kts | 206° |
| 2026-05-07 00:02 | 37.85456 | -78.16766 | 18019 ft | 407 kts | 206° |
| 2026-05-07 00:03 | 37.82923 | -78.18370 | 18019 ft | 407 kts | 206° |
| 2026-05-07 00:03 | 37.80421 | -78.19958 | 18019 ft | 407 kts | 206° |
| 2026-05-07 00:03 | 37.77901 | -78.21556 | 18019 ft | 407 kts | 206° |
| 2026-05-07 00:03 | 37.75376 | -78.23158 | 18019 ft | 407 kts | 206° |
| 2026-05-07 00:04 | 37.72849 | -78.24761 | 18019 ft | 407 kts | 206° |
| 2026-05-07 00:04 | 37.70322 | -78.26363 | 18019 ft | 407 kts | 206° |
| 2026-05-07 00:04 | 37.67807 | -78.27956 | 18019 ft | 407 kts | 206° |
| 2026-05-07 00:04 | 37.65239 | -78.29582 | 18019 ft | 407 kts | 206° |
| 2026-05-07 00:05 | 37.62707 | -78.31184 | 18019 ft | 407 kts | 206° |
| 2026-05-07 00:05 | 37.60186 | -78.32777 | 18019 ft | 407 kts | 206° |
| 2026-05-07 00:05 | 37.57637 | -78.34388 | 18019 ft | 407 kts | 206° |
| 2026-05-07 00:05 | 37.55121 | -78.35976 | 18019 ft | 407 kts | 206° |
| 2026-05-07 00:06 | 37.52594 | -78.37570 | 18019 ft | 407 kts | 206° |
| 2026-05-07 00:06 | 37.50055 | -78.39170 | 18019 ft | 407 kts | 206° |
| 2026-05-07 00:06 | 37.47514 | -78.40771 | 18019 ft | 407 kts | 206° |
| 2026-05-07 00:06 | 37.44963 | -78.42377 | 18019 ft | 407 kts | 206° |
| 2026-05-07 00:07 | 37.42433 | -78.43967 | 18019 ft | 407 kts | 206° |
| 2026-05-07 00:07 | 37.39932 | -78.45539 | 18019 ft | 407 kts | 206° |